Hudson, New Hampshire
Current Conditions -  °F | °C
As of 8:51 AM on Saturday 20 Dec 2014 (Local Time) from KASH Reporting Station
Clear Clear  
Wind Chill: 19°   Ceiling: Unl
Heat Index: 26°   Visibility: 10mi
Dew Point: 20°   Wind: 6mph
Humidity: 78%   Direction: 350°N
Pressure: 30.32"   Gusts: NA
Location:  42.76°N, 71.44°W
Report Text: KASH 201351Z 35005KT 10SM CLR M03/M07 A3032 RMK AO2 T10331066 SLP529
Loading
Personal Weather Stations






























Interactive Weather Map New forecast layout! Learn more

10-Day Weather Forecast

Advertisements
Track Severe Weather on mobile